createdAt,value
2018-09-19T00:00:25.294Z,24.13
2018-09-19T00:01:25.143Z,24.13
2018-09-19T00:02:25.197Z,24.05
2018-09-19T00:03:25.197Z,24.10
2018-09-19T00:04:25.222Z,24.12
2018-09-19T00:05:25.259Z,24.12
2018-09-19T00:06:25.273Z,23.89
2018-09-19T00:07:25.302Z,23.86
2018-09-19T00:08:25.330Z,23.90
2018-09-19T00:09:25.358Z,23.90
2018-09-19T00:10:25.375Z,23.92
2018-09-19T00:11:25.395Z,23.72
2018-09-19T00:12:25.417Z,23.85
2018-09-19T00:13:25.448Z,23.94
2018-09-19T00:14:25.476Z,24.01
2018-09-19T00:15:25.512Z,24.04
2018-09-19T00:16:25.522Z,24.10
2018-09-19T00:17:25.568Z,24.01
2018-09-19T00:18:25.578Z,24.00
2018-09-19T00:19:25.603Z,23.92
2018-09-19T00:20:25.630Z,24.05
2018-09-19T00:21:25.644Z,24.14
2018-09-19T00:22:25.739Z,24.04
2018-09-19T00:23:25.698Z,24.04
2018-09-19T00:24:25.828Z,23.89
2018-09-19T00:25:25.771Z,23.98
2018-09-19T00:26:25.775Z,24.08
2018-09-19T00:27:25.803Z,23.97
2018-09-19T00:28:25.822Z,23.98
2018-09-19T00:29:25.852Z,23.89
2018-09-19T00:30:25.870Z,24.02
2018-09-19T00:31:25.916Z,24.04
2018-09-19T00:32:25.924Z,23.98
2018-09-19T00:33:25.982Z,24.00
2018-09-19T00:34:25.975Z,24.01
2018-09-19T00:35:26.070Z,23.82
2018-09-19T00:36:26.022Z,23.75
2018-09-19T00:37:26.059Z,23.87
2018-09-19T00:38:26.095Z,23.97
2018-09-19T00:39:26.099Z,23.92
2018-09-19T00:40:26.128Z,23.90
2018-09-19T00:41:26.159Z,23.85
2018-09-19T00:42:26.181Z,23.72
2018-09-19T00:43:26.221Z,23.70
2018-09-19T00:44:26.233Z,23.67
2018-09-19T00:45:26.250Z,23.68
2018-09-19T00:46:26.361Z,23.67
2018-09-19T00:47:26.310Z,23.72
2018-09-19T00:48:26.325Z,23.77
2018-09-19T00:49:26.351Z,23.76
2018-09-19T00:50:26.377Z,23.87
2018-09-19T00:51:26.416Z,23.92
2018-09-19T00:52:26.429Z,23.97
2018-09-19T00:53:26.479Z,23.92
2018-09-19T00:54:26.481Z,23.85
2018-09-19T00:55:26.503Z,23.83
2018-09-19T00:56:26.533Z,23.85
2018-09-19T00:57:26.640Z,23.82
2018-09-19T00:58:26.626Z,23.62
2018-09-19T00:59:26.663Z,23.71
2018-09-19T01:00:26.648Z,23.67
2018-09-19T01:01:26.652Z,23.70
2018-09-19T01:02:26.723Z,23.70
2018-09-19T01:03:26.703Z,23.82
2018-09-19T01:04:26.728Z,23.89
2018-09-19T01:05:26.748Z,23.86
2018-09-19T01:06:26.795Z,23.85
2018-09-19T01:07:26.804Z,23.90
2018-09-19T01:08:26.824Z,23.86
2018-09-19T01:09:26.859Z,23.80
2018-09-19T01:10:26.875Z,23.70
2018-09-19T01:11:26.902Z,23.75
2018-09-19T01:12:26.925Z,23.60
2018-09-19T01:13:26.952Z,23.57
2018-09-19T01:14:26.970Z,23.58
2018-09-19T01:15:27.012Z,23.55
2018-09-19T01:16:27.022Z,23.64
2018-09-19T01:17:27.054Z,23.71
2018-09-19T01:18:27.074Z,23.70
2018-09-19T01:19:27.096Z,23.75
2018-09-19T01:20:27.117Z,23.64
2018-09-19T01:21:27.219Z,23.76
2018-09-19T01:22:27.176Z,23.67
2018-09-19T01:23:27.211Z,23.52
2018-09-19T01:24:27.218Z,23.53
2018-09-19T01:25:27.260Z,23.61
2018-09-19T01:26:27.277Z,23.68
2018-09-19T01:27:27.298Z,23.65
2018-09-19T01:28:27.321Z,23.52
2018-09-19T01:29:27.343Z,23.58
2018-09-19T01:30:27.373Z,23.58
2018-09-19T01:31:27.389Z,23.57
2018-09-19T01:32:27.439Z,23.47
2018-09-19T01:33:27.451Z,23.67
2018-09-19T01:34:27.473Z,23.67
2018-09-19T01:35:27.496Z,23.60
2018-09-19T01:36:27.523Z,23.65
2018-09-19T01:37:27.556Z,23.71
2018-09-19T01:38:27.575Z,23.64
2018-09-19T01:39:27.594Z,23.53
2018-09-19T01:40:27.617Z,23.77
2018-09-19T01:41:27.647Z,23.64
2018-09-19T01:43:27.705Z,23.57
2018-09-19T01:44:27.727Z,23.49
2018-09-19T01:45:27.743Z,23.45
2018-09-19T01:46:27.845Z,23.50
2018-09-19T01:47:27.796Z,23.64
2018-09-19T01:48:27.811Z,23.50
2018-09-19T01:49:27.843Z,23.61
2018-09-19T01:50:27.868Z,23.50
2018-09-19T01:51:27.896Z,23.55
2018-09-19T01:52:27.923Z,23.50
2018-09-19T01:53:28.623Z,23.31
2018-09-19T01:54:27.966Z,23.46
2018-09-19T01:55:27.999Z,23.31
2018-09-19T01:56:28.021Z,23.34
2018-09-19T01:57:28.051Z,23.38
2018-09-19T01:58:28.072Z,23.12
2018-09-19T01:59:28.105Z,23.29
2018-09-19T02:00:28.112Z,23.40
2018-09-19T02:01:28.141Z,23.11
2018-09-19T02:02:28.166Z,23.17
2018-09-19T02:03:28.184Z,23.23
2018-09-19T02:04:28.209Z,23.24
2018-09-19T02:05:28.243Z,23.39
2018-09-19T02:06:28.269Z,23.39
2018-09-19T02:07:28.345Z,23.24
2018-09-19T02:08:28.307Z,23.07
2018-09-19T02:09:28.335Z,23.24
2018-09-19T02:10:28.362Z,23.24
2018-09-19T02:11:28.381Z,23.19
2018-09-19T02:12:28.413Z,23.08
2018-09-19T02:13:28.428Z,22.96
2018-09-19T02:14:28.457Z,22.97
2018-09-19T02:15:28.482Z,22.84
2018-09-19T02:16:28.537Z,22.87
2018-09-19T02:17:28.529Z,22.97
2018-09-19T02:18:28.558Z,22.82
2018-09-19T02:19:28.580Z,22.75
2018-09-19T02:20:28.617Z,22.96
2018-09-19T02:21:28.623Z,22.86
2018-09-19T02:22:28.671Z,23.08
2018-09-19T02:23:28.677Z,22.78
2018-09-19T02:24:28.701Z,22.83
2018-09-19T02:25:28.725Z,22.77
2018-09-19T02:26:28.754Z,22.93
2018-09-19T02:27:28.787Z,22.89
2018-09-19T02:28:28.818Z,23.05
2018-09-19T02:29:28.824Z,23.09
2018-09-19T02:30:28.855Z,22.99
2018-09-19T02:31:28.871Z,22.69
2018-09-19T02:32:28.894Z,22.60
2018-09-19T02:33:28.923Z,22.72
2018-09-19T02:34:28.943Z,22.77
2018-09-19T02:35:28.997Z,22.90
2018-09-19T02:36:29.000Z,22.83
2018-09-19T02:37:29.032Z,22.89
2018-09-19T02:38:29.034Z,23.01
2018-09-19T02:39:29.065Z,23.02
2018-09-19T02:40:29.094Z,22.84
2018-09-19T02:41:29.124Z,23.01
2018-09-19T02:42:29.135Z,22.77
2018-09-19T02:43:29.156Z,22.64
2018-09-19T02:44:29.195Z,22.46
2018-09-19T02:45:29.243Z,22.46
2018-09-19T02:46:29.255Z,22.41
2018-09-19T02:47:29.256Z,22.38
2018-09-19T02:48:29.293Z,22.49
2018-09-19T02:49:29.307Z,22.67
2018-09-19T02:50:29.344Z,22.78
2018-09-19T02:51:29.360Z,22.69
2018-09-19T02:52:29.408Z,22.83
2018-09-19T02:53:29.410Z,22.86
2018-09-19T02:54:29.442Z,22.83
2018-09-19T02:55:29.466Z,22.87
2018-09-19T02:57:29.511Z,22.68
2018-09-19T02:58:29.529Z,22.65
2018-09-19T02:59:29.551Z,22.64
2018-09-19T03:00:29.577Z,22.60
2018-09-19T03:01:29.596Z,22.75
2018-09-19T03:02:29.709Z,22.72
2018-09-19T03:03:29.650Z,22.80
2018-09-19T03:04:29.672Z,22.74
2018-09-19T03:05:29.719Z,22.80
2018-09-19T03:06:29.769Z,22.78
2018-09-19T03:07:30.659Z,22.87
2018-09-19T03:08:29.778Z,22.90
2018-09-19T03:09:29.797Z,22.82
2018-09-19T03:10:29.815Z,22.78
2018-09-19T03:11:29.845Z,22.83
2018-09-19T03:12:29.866Z,22.87
2018-09-19T03:13:29.883Z,22.77
2018-09-19T03:14:29.925Z,22.69
2018-09-19T03:15:29.942Z,22.57
2018-09-19T03:16:29.981Z,22.59
2018-09-19T03:17:30.077Z,22.46
2018-09-19T03:18:30.011Z,22.39
2018-09-19T03:19:30.037Z,22.53
2018-09-19T03:20:30.070Z,22.65
2018-09-19T03:21:30.091Z,22.75
2018-09-19T03:22:30.104Z,22.77
2018-09-19T03:23:30.130Z,22.71
2018-09-19T03:24:30.153Z,22.71
2018-09-19T03:25:30.173Z,22.59
2018-09-19T03:26:30.213Z,22.57
2018-09-19T03:27:30.234Z,22.71
2018-09-19T03:28:30.249Z,22.77
2018-09-19T03:29:30.281Z,22.96
2018-09-19T03:30:30.305Z,22.97
2018-09-19T03:31:30.320Z,22.84
2018-09-19T03:32:30.354Z,22.80
2018-09-19T03:33:30.370Z,22.82
2018-09-19T03:34:30.395Z,22.87
2018-09-19T03:35:30.445Z,22.94
2018-09-19T03:36:30.447Z,22.78
2018-09-19T03:37:30.470Z,22.80
2018-09-19T03:38:30.520Z,22.86
2018-09-19T03:39:30.523Z,22.75
2018-09-19T03:40:30.556Z,22.75
2018-09-19T03:41:30.570Z,22.78
2018-09-19T03:42:30.591Z,22.77
2018-09-19T03:43:30.620Z,22.68
2018-09-19T03:44:30.636Z,22.71
2018-09-19T03:45:30.662Z,22.75
2018-09-19T03:46:30.681Z,22.80
2018-09-19T03:47:30.719Z,22.83
2018-09-19T03:48:30.823Z,22.84
2018-09-19T03:49:30.761Z,22.80
2018-09-19T03:50:30.784Z,22.69
2018-09-19T03:51:30.800Z,22.84
2018-09-19T03:52:30.837Z,22.87
2018-09-19T03:53:30.887Z,22.86
2018-09-19T03:54:30.873Z,22.89
2018-09-19T03:55:30.902Z,22.82
2018-09-19T03:56:30.929Z,22.82
2018-09-19T03:57:30.954Z,22.83
2018-09-19T03:58:30.985Z,22.84
2018-09-19T03:59:31.029Z,22.86
2018-09-19T04:00:31.034Z,23.02
2018-09-19T04:01:31.055Z,22.90
2018-09-19T04:02:31.076Z,22.89
2018-09-19T04:03:31.100Z,22.94
2018-09-19T04:04:31.118Z,22.86
2018-09-19T04:05:31.152Z,22.84
2018-09-19T04:06:31.173Z,22.78
2018-09-19T04:07:31.190Z,22.74
2018-09-19T04:08:31.217Z,22.56
2018-09-19T04:09:32.200Z,22.59
2018-09-19T04:10:31.266Z,22.62
2018-09-19T04:11:31.344Z,22.74
2018-09-19T04:12:31.328Z,22.82
2018-09-19T04:13:31.340Z,22.78
2018-09-19T04:14:31.445Z,22.80
2018-09-19T04:15:31.406Z,22.77
2018-09-19T04:16:31.405Z,22.77
2018-09-19T04:17:31.429Z,22.83
2018-09-19T04:18:31.462Z,22.78
2018-09-19T04:19:31.484Z,22.78
2018-09-19T04:20:31.516Z,22.89
2018-09-19T04:21:31.530Z,22.87
2018-09-19T04:22:31.566Z,22.87
2018-09-19T04:23:31.585Z,22.89
2018-09-19T04:24:31.614Z,22.83
2018-09-19T04:25:31.628Z,22.82
2018-09-19T04:26:31.672Z,22.80
2018-09-19T04:27:31.675Z,22.82
2018-09-19T04:28:31.720Z,22.53
2018-09-19T04:29:31.722Z,22.64
2018-09-19T04:30:31.751Z,22.68
2018-09-19T04:31:31.776Z,22.74
2018-09-19T04:32:31.820Z,22.89
2018-09-19T04:33:31.820Z,22.80
2018-09-19T04:34:31.864Z,22.75
2018-09-19T04:35:31.868Z,22.83
2018-09-19T04:36:31.935Z,22.83
2018-09-19T04:37:31.942Z,22.83
2018-09-19T04:38:31.959Z,22.77
2018-09-19T04:39:31.963Z,22.84
2018-09-19T04:40:31.989Z,22.75
2018-09-19T04:41:32.012Z,22.74
2018-09-19T04:42:32.044Z,22.72
2018-09-19T04:43:32.059Z,22.72
2018-09-19T04:44:32.086Z,22.78
2018-09-19T04:45:32.112Z,22.83
2018-09-19T04:46:32.137Z,22.74
2018-09-19T04:47:32.161Z,22.80
2018-09-19T04:48:32.177Z,22.67
2018-09-19T04:49:32.213Z,22.57
2018-09-19T04:50:32.249Z,22.65
2018-09-19T04:51:32.366Z,22.69
2018-09-19T04:52:32.279Z,22.57
2018-09-19T04:53:32.302Z,22.53
2018-09-19T04:54:32.330Z,22.56
2018-09-19T04:55:32.353Z,22.54
2018-09-19T04:56:32.391Z,22.68
2018-09-19T04:57:32.399Z,22.62
2018-09-19T04:58:32.432Z,22.68
2018-09-19T04:59:32.442Z,22.69
2018-09-19T05:00:32.469Z,22.62
2018-09-19T05:01:32.495Z,22.67
2018-09-19T05:02:32.514Z,22.43
2018-09-19T05:03:32.591Z,22.47
2018-09-19T05:04:32.562Z,22.43
2018-09-19T05:05:32.601Z,22.54
2018-09-19T05:06:32.615Z,22.57
2018-09-19T05:07:32.637Z,22.41
2018-09-19T05:08:32.660Z,22.46
2018-09-19T05:09:32.829Z,22.41
2018-09-19T05:10:32.723Z,22.53
2018-09-19T05:11:32.819Z,22.59
2018-09-19T05:12:32.758Z,22.35
2018-09-19T05:13:32.799Z,22.44
2018-09-19T05:14:32.813Z,22.50
2018-09-19T05:15:32.823Z,22.46
2018-09-19T05:16:32.848Z,22.56
2018-09-19T05:17:32.875Z,22.53
2018-09-19T05:18:33.724Z,22.56
2018-09-19T05:19:32.940Z,22.56
2018-09-19T05:20:32.954Z,22.56
2018-09-19T05:21:32.969Z,22.38
2018-09-19T05:22:33.051Z,22.41
2018-09-19T05:23:33.056Z,22.13
2018-09-19T05:24:33.048Z,22.14
2018-09-19T05:25:33.066Z,22.16
2018-09-19T05:26:33.089Z,22.32
2018-09-19T05:27:33.113Z,22.43
2018-09-19T05:28:33.156Z,22.35
2018-09-19T05:29:33.173Z,22.44
2018-09-19T05:30:33.191Z,22.43
2018-09-19T05:31:33.262Z,22.41
2018-09-19T05:32:33.240Z,22.41
2018-09-19T05:33:33.361Z,22.32
2018-09-19T05:34:33.323Z,22.23
2018-09-19T05:35:33.315Z,22.44
2018-09-19T05:36:33.327Z,22.39
2018-09-19T05:37:33.376Z,22.32
2018-09-19T05:38:33.376Z,22.47
2018-09-19T05:39:33.406Z,22.49
2018-09-19T05:40:33.422Z,22.39
2018-09-19T05:41:33.485Z,22.43
2018-09-19T05:42:33.474Z,22.41
2018-09-19T05:43:33.500Z,22.46
2018-09-19T05:44:33.525Z,22.43
2018-09-19T05:45:33.651Z,22.49
2018-09-19T05:46:33.595Z,22.47
2018-09-19T05:47:33.672Z,22.44
2018-09-19T05:48:33.614Z,22.46
2018-09-19T05:49:33.641Z,22.37
2018-09-19T05:50:33.660Z,22.41
2018-09-19T05:51:33.684Z,22.38
2018-09-19T05:52:33.714Z,22.39
2018-09-19T05:53:33.740Z,22.34
2018-09-19T05:54:33.786Z,22.28
2018-09-19T05:55:33.784Z,22.27
2018-09-19T05:56:33.807Z,22.27
2018-09-19T05:57:33.851Z,22.22
2018-09-19T05:58:33.851Z,22.10
2018-09-19T05:59:33.932Z,22.12
2018-09-19T06:00:33.945Z,21.99
2018-09-19T06:01:33.946Z,22.07
2018-09-19T06:02:33.962Z,22.17
2018-09-19T06:03:34.048Z,22.28
2018-09-19T06:04:34.018Z,22.35
2018-09-19T06:05:34.036Z,22.28
2018-09-19T06:06:34.082Z,22.47
2018-09-19T06:07:34.159Z,22.29
2018-09-19T06:08:34.180Z,22.12
2018-09-19T06:09:34.189Z,22.07
2018-09-19T06:10:34.207Z,21.90
2018-09-19T06:11:34.162Z,22.04
2018-09-19T06:12:34.213Z,22.14
2018-09-19T06:13:34.237Z,22.23
2018-09-19T06:14:34.234Z,22.19
2018-09-19T06:15:34.263Z,21.99
2018-09-19T06:16:34.309Z,22.04
2018-09-19T06:17:34.300Z,22.19
2018-09-19T06:18:34.356Z,21.99
2018-09-19T06:19:34.378Z,22.01
2018-09-19T06:20:34.374Z,22.04
2018-09-19T06:21:34.399Z,22.13
2018-09-19T06:22:34.417Z,22.06
2018-09-19T06:23:34.589Z,21.98
2018-09-19T06:24:34.558Z,22.01
2018-09-19T06:25:34.499Z,21.97
2018-09-19T06:26:34.556Z,21.91
2018-09-19T06:27:34.558Z,21.85
2018-09-19T06:28:34.576Z,21.83
2018-09-19T06:29:34.590Z,21.92
2018-09-19T06:30:34.623Z,21.98
2018-09-19T06:31:34.675Z,21.94
2018-09-19T06:32:34.739Z,21.95
2018-09-19T06:33:34.804Z,22.02
2018-09-19T06:34:34.702Z,22.20
2018-09-19T06:35:34.727Z,22.14
2018-09-19T06:36:34.744Z,22.04
2018-09-19T06:37:34.787Z,22.10
2018-09-19T06:38:34.888Z,22.13
2018-09-19T06:39:34.818Z,22.22
2018-09-19T06:40:34.916Z,21.99
2018-09-19T06:41:34.871Z,21.99
2018-09-19T06:42:34.903Z,21.92
2018-09-19T06:43:34.952Z,21.94
2018-09-19T06:44:35.010Z,22.04
2018-09-19T06:45:35.105Z,22.14
2018-09-19T06:46:35.053Z,22.10
2018-09-19T06:47:35.035Z,22.14
2018-09-19T06:48:35.067Z,22.31
2018-09-19T06:49:35.072Z,22.39
2018-09-19T06:50:35.088Z,22.41
2018-09-19T06:51:35.110Z,22.41
2018-09-19T06:52:35.184Z,22.39
2018-09-19T06:53:35.183Z,22.22
2018-09-19T06:54:35.256Z,22.25
2018-09-19T06:55:35.244Z,22.20
2018-09-19T06:56:35.288Z,22.27
2018-09-19T06:57:35.246Z,22.23
2018-09-19T06:58:35.288Z,22.28
2018-09-19T06:59:35.326Z,22.23
2018-09-19T07:00:35.339Z,22.17
2018-09-19T07:01:35.379Z,22.13
2018-09-19T07:02:35.377Z,22.14
2018-09-19T07:03:35.407Z,22.31
2018-09-19T07:04:35.422Z,22.28
2018-09-19T07:05:35.459Z,22.27
2018-09-19T07:06:35.460Z,22.25
2018-09-19T07:07:35.491Z,22.13
2018-09-19T07:08:35.521Z,22.29
2018-09-19T07:09:35.548Z,22.39
2018-09-19T07:10:35.666Z,22.34
2018-09-19T07:11:35.596Z,22.28
2018-09-19T07:12:35.710Z,22.37
2018-09-19T07:13:35.696Z,22.50
2018-09-19T07:14:35.721Z,22.44
2018-09-19T07:15:35.706Z,22.54
2018-09-19T07:16:35.819Z,22.43
2018-09-19T07:17:35.737Z,22.46
2018-09-19T07:18:35.946Z,22.54
2018-09-19T07:19:35.794Z,22.50
2018-09-19T07:20:35.806Z,22.56
2018-09-19T07:21:35.846Z,22.53
2018-09-19T07:22:35.853Z,22.43
2018-09-19T07:23:35.895Z,22.39
2018-09-19T07:24:35.911Z,22.43
2018-09-19T07:25:35.922Z,22.49
2018-09-19T07:26:35.983Z,22.60
2018-09-19T07:27:35.984Z,22.64
2018-09-19T07:28:36.079Z,22.64
2018-09-19T07:29:36.078Z,22.39
2018-09-19T07:30:36.131Z,22.35
2018-09-19T07:31:36.070Z,22.43
2018-09-19T07:32:36.159Z,22.54
2018-09-19T07:33:36.113Z,22.56
2018-09-19T07:34:36.230Z,22.43
2018-09-19T07:35:36.180Z,22.60
2018-09-19T07:36:36.195Z,22.64
2018-09-19T07:37:36.212Z,22.62
2018-09-19T07:38:36.236Z,22.59
2018-09-19T07:39:36.268Z,22.57
2018-09-19T07:40:36.305Z,22.60
2018-09-19T07:41:36.320Z,22.57
2018-09-19T07:42:36.374Z,22.59
2018-09-19T07:43:36.388Z,22.53
2018-09-19T07:44:36.419Z,22.60
2018-09-19T07:45:36.439Z,22.78
2018-09-19T07:46:36.489Z,22.75
2018-09-19T07:47:36.473Z,22.77
2018-09-19T07:48:36.491Z,22.78
2018-09-19T07:49:36.516Z,22.71
2018-09-19T07:50:36.529Z,22.77
2018-09-19T07:51:36.555Z,22.80
2018-09-19T07:52:36.574Z,22.78
2018-09-19T07:53:36.645Z,22.87
2018-09-19T07:54:36.673Z,22.84
2018-09-19T07:55:36.657Z,22.82
2018-09-19T07:56:36.765Z,22.87
2018-09-19T07:57:36.694Z,22.90
2018-09-19T07:58:36.775Z,22.84
2018-09-19T07:59:36.789Z,22.93
2018-09-19T08:00:36.906Z,23.01
2018-09-19T08:01:36.791Z,23.04
2018-09-19T08:02:36.816Z,23.02
2018-09-19T08:03:36.895Z,23.09
2018-09-19T08:04:36.930Z,23.01
2018-09-19T08:05:36.908Z,23.04
2018-09-19T08:06:36.919Z,22.86
2018-09-19T08:07:36.946Z,22.86
2018-09-19T08:08:36.963Z,23.02
2018-09-19T08:09:36.993Z,22.99
2018-09-19T08:10:37.013Z,23.14
2018-09-19T08:11:37.040Z,23.11
2018-09-19T08:12:37.064Z,23.09
2018-09-19T08:13:37.096Z,23.04
2018-09-19T08:14:37.151Z,23.15
2018-09-19T08:15:37.272Z,23.07
2018-09-19T08:16:37.168Z,23.17
2018-09-19T08:17:37.259Z,23.11
2018-09-19T08:18:37.231Z,23.14
2018-09-19T08:19:37.307Z,23.19
2018-09-19T08:20:37.268Z,23.22
2018-09-19T08:21:37.283Z,23.23
2018-09-19T08:22:37.363Z,23.23
2018-09-19T08:23:37.326Z,23.24
2018-09-19T08:24:37.366Z,23.29
2018-09-19T08:25:37.384Z,23.38
2018-09-19T08:26:37.409Z,23.35
2018-09-19T08:27:37.439Z,23.40
2018-09-19T08:28:37.460Z,23.39
2018-09-19T08:29:37.485Z,23.39
2018-09-19T08:30:37.501Z,23.39
2018-09-19T08:31:37.540Z,23.43
2018-09-19T08:32:37.555Z,23.47
2018-09-19T08:33:37.579Z,23.46
2018-09-19T08:34:37.602Z,23.42
2018-09-19T08:35:37.626Z,23.45
2018-09-19T08:36:37.647Z,23.45
2018-09-19T08:37:37.675Z,23.53
2018-09-19T08:38:37.719Z,23.53
2018-09-19T08:39:37.794Z,23.47
2018-09-19T08:40:37.754Z,23.53
2018-09-19T08:41:37.794Z,23.60
2018-09-19T08:42:37.839Z,23.64
2018-09-19T08:43:37.834Z,23.65
2018-09-19T08:44:37.873Z,23.47
2018-09-19T08:45:37.874Z,23.65
2018-09-19T08:46:37.900Z,23.62
2018-09-19T08:47:37.927Z,23.58
2018-09-19T08:48:37.960Z,23.58
2018-09-19T08:49:37.973Z,23.71
2018-09-19T08:50:38.040Z,23.53
2018-09-19T08:51:38.021Z,23.57
2018-09-19T08:52:38.059Z,23.57
2018-09-19T08:53:38.076Z,23.57
2018-09-19T08:54:38.104Z,23.64
2018-09-19T08:55:38.122Z,23.68
2018-09-19T08:56:38.172Z,23.62
2018-09-19T08:57:38.169Z,23.72
2018-09-19T08:58:38.195Z,23.72
2018-09-19T08:59:38.233Z,23.75
2018-09-19T09:00:38.239Z,23.76
2018-09-19T09:01:38.275Z,23.80
2018-09-19T09:02:38.314Z,23.79
2018-09-19T09:03:38.320Z,23.79
2018-09-19T09:04:38.380Z,23.83
2018-09-19T09:05:38.391Z,23.86
2018-09-19T09:06:38.414Z,23.82
2018-09-19T09:07:38.422Z,23.86
2018-09-19T09:08:38.451Z,23.87
2018-09-19T09:09:38.477Z,23.89
2018-09-19T09:10:38.496Z,23.95
2018-09-19T09:11:38.524Z,23.98
2018-09-19T09:12:38.596Z,23.87
2018-09-19T09:13:38.570Z,24.00
2018-09-19T09:14:38.625Z,24.05
2018-09-19T09:15:38.630Z,23.94
2018-09-19T09:16:38.647Z,24.07
2018-09-19T09:17:38.693Z,24.07
2018-09-19T09:18:38.703Z,24.12
2018-09-19T09:19:38.727Z,24.04
2018-09-19T09:20:38.749Z,24.12
2018-09-19T09:21:38.782Z,24.07
2018-09-19T09:22:38.809Z,24.13
2018-09-19T09:23:38.838Z,24.08
2018-09-19T09:24:38.856Z,24.24
2018-09-19T09:25:38.937Z,24.17
2018-09-19T09:26:38.925Z,24.19
2018-09-19T09:27:38.944Z,24.22
2018-09-19T09:28:38.966Z,24.19
2018-09-19T09:29:38.995Z,24.16
2018-09-19T09:30:39.024Z,24.16
2018-09-19T09:31:39.055Z,24.27
2018-09-19T09:32:39.078Z,24.26
2018-09-19T09:33:39.094Z,24.29
2018-09-19T09:34:39.117Z,24.29
2018-09-19T09:35:39.148Z,24.37
2018-09-19T09:36:39.231Z,24.23
2018-09-19T09:37:39.200Z,24.31
2018-09-19T09:38:39.229Z,24.35
2018-09-19T09:39:39.249Z,24.37
2018-09-19T09:40:39.337Z,24.38
2018-09-19T09:41:39.306Z,24.34
2018-09-19T09:42:39.341Z,24.32
2018-09-19T09:43:39.422Z,24.29
2018-09-19T09:44:39.388Z,24.31
2018-09-19T09:45:39.408Z,24.35
2018-09-19T09:46:39.437Z,24.35
2018-09-19T09:47:39.458Z,24.37
2018-09-19T09:48:39.481Z,24.34
2018-09-19T09:49:39.556Z,24.35
2018-09-19T09:50:39.527Z,24.29
2018-09-19T09:51:39.557Z,24.35
2018-09-19T09:52:39.588Z,24.37
2018-09-19T09:53:39.613Z,24.45
2018-09-19T09:54:39.646Z,24.42
2018-09-19T09:55:39.662Z,24.42
2018-09-19T09:56:39.763Z,24.41
2018-09-19T09:57:39.754Z,24.38
2018-09-19T09:58:39.738Z,24.42
2018-09-19T09:59:39.770Z,24.41
2018-09-19T10:00:39.809Z,24.47
2018-09-19T10:01:39.820Z,24.56
2018-09-19T10:02:39.860Z,24.54
2018-09-19T10:03:39.878Z,24.53
2018-09-19T10:04:39.903Z,24.49
2018-09-19T10:05:39.928Z,24.52
2018-09-19T10:06:39.995Z,24.47
2018-09-19T10:07:40.004Z,24.56
2018-09-19T10:08:40.006Z,24.50
2018-09-19T10:09:40.026Z,24.52
2018-09-19T10:10:40.050Z,24.53
2018-09-19T10:11:40.075Z,24.57
2018-09-19T10:12:40.124Z,24.59
2018-09-19T10:13:40.176Z,24.59
2018-09-19T10:14:40.162Z,24.63
2018-09-19T10:15:40.186Z,24.63
2018-09-19T10:16:40.208Z,24.59
2018-09-19T10:17:40.234Z,24.64
2018-09-19T10:18:40.421Z,24.71
2018-09-19T10:19:40.313Z,24.75
2018-09-19T10:20:40.306Z,24.68
2018-09-19T10:21:40.336Z,24.67
2018-09-19T10:22:40.365Z,24.68
2018-09-19T10:23:40.387Z,24.67
2018-09-19T10:24:40.408Z,24.75
2018-09-19T10:25:40.437Z,24.82
2018-09-19T10:26:40.471Z,24.75
2018-09-19T10:27:40.498Z,24.69
2018-09-19T10:28:40.520Z,24.69
2018-09-19T10:29:40.577Z,24.71
2018-09-19T10:30:40.582Z,24.80
2018-09-19T10:31:40.591Z,24.88
2018-09-19T10:32:40.626Z,24.82
2018-09-19T10:33:40.641Z,24.88
2018-09-19T10:34:40.671Z,24.97
2018-09-19T10:35:40.696Z,24.91
2018-09-19T10:36:40.727Z,24.87
2018-09-19T10:37:40.750Z,24.82
2018-09-19T10:38:40.783Z,24.87
2018-09-19T10:39:40.816Z,24.88
2018-09-19T10:40:40.859Z,24.90
2018-09-19T10:41:40.883Z,24.98
2018-09-19T10:42:40.944Z,24.88
2018-09-19T10:43:40.909Z,25.07
2018-09-19T10:44:40.936Z,25.13
2018-09-19T10:45:40.967Z,25.07
2018-09-19T10:46:40.992Z,25.07
2018-09-19T10:47:41.016Z,25.01
2018-09-19T10:48:41.046Z,25.02
2018-09-19T10:49:41.070Z,25.05
2018-09-19T10:50:41.107Z,24.97
2018-09-19T10:51:41.133Z,24.91
2018-09-19T10:52:41.144Z,24.92
2018-09-19T10:53:41.194Z,24.95
2018-09-19T10:54:41.895Z,25.05
2018-09-19T10:55:41.234Z,25.06
2018-09-19T10:56:41.282Z,25.02
2018-09-19T10:57:41.332Z,25.13
2018-09-19T10:58:41.300Z,25.22
2018-09-19T10:59:41.333Z,25.24
2018-09-19T11:00:41.355Z,25.20
2018-09-19T11:01:41.414Z,25.17
2018-09-19T11:02:41.414Z,25.32
2018-09-19T11:03:41.445Z,25.39
2018-09-19T11:04:41.460Z,25.37
2018-09-19T11:05:41.488Z,25.50
2018-09-19T11:06:41.526Z,25.38
2018-09-19T11:07:41.545Z,25.31
2018-09-19T11:08:41.568Z,25.38
2018-09-19T11:09:41.604Z,25.34
2018-09-19T11:10:41.621Z,25.35
2018-09-19T11:11:41.649Z,25.37
2018-09-19T11:12:41.684Z,25.35
2018-09-19T11:13:41.740Z,25.47
2018-09-19T11:14:41.729Z,25.62
2018-09-19T11:15:41.757Z,25.67
2018-09-19T11:16:41.789Z,25.74
2018-09-19T11:17:41.806Z,25.82
2018-09-19T11:18:41.843Z,25.98
2018-09-19T11:19:41.871Z,25.99
2018-09-19T11:20:41.890Z,26.02
2018-09-19T11:21:41.918Z,25.93
2018-09-19T11:22:41.945Z,25.90
2018-09-19T11:23:41.968Z,25.94
2018-09-19T11:24:42.001Z,26.06
2018-09-19T11:25:42.035Z,26.31
2018-09-19T11:26:42.052Z,26.29
2018-09-19T11:27:42.094Z,26.22
2018-09-19T11:28:42.911Z,26.31
2018-09-19T11:29:42.138Z,26.21
2018-09-19T11:30:42.202Z,26.28
2018-09-19T11:31:42.193Z,26.22
2018-09-19T11:32:42.217Z,26.27
2018-09-19T11:33:42.283Z,26.36
2018-09-19T11:34:42.274Z,26.44
2018-09-19T11:36:42.323Z,26.40
2018-09-19T11:37:42.353Z,26.47
2018-09-19T11:38:42.385Z,26.46
2018-09-19T11:39:42.424Z,26.52
2018-09-19T11:40:42.435Z,26.58
2018-09-19T11:41:42.474Z,26.54
2018-09-19T11:42:42.493Z,26.61
2018-09-19T11:43:42.521Z,26.72
2018-09-19T11:44:42.549Z,26.72
2018-09-19T11:45:42.585Z,26.64
2018-09-19T11:46:42.740Z,26.55
2018-09-19T11:47:42.639Z,26.37
2018-09-19T11:48:42.667Z,26.29
2018-09-19T11:49:42.696Z,26.35
2018-09-19T11:50:42.727Z,26.35
2018-09-19T11:51:42.754Z,26.31
2018-09-19T11:52:42.787Z,26.31
2018-09-19T11:53:42.811Z,26.42
2018-09-19T11:54:42.835Z,26.35
2018-09-19T11:55:42.859Z,26.31
2018-09-19T11:56:42.893Z,26.21
2018-09-19T11:57:42.923Z,26.25
2018-09-19T11:58:42.961Z,26.28
2018-09-19T11:59:42.968Z,26.22
2018-09-19T12:00:43.000Z,26.35
2018-09-19T12:01:43.030Z,26.32
2018-09-19T12:02:43.058Z,26.46
2018-09-19T12:03:43.083Z,26.59
2018-09-19T12:04:43.107Z,26.68
2018-09-19T12:05:43.156Z,26.68
2018-09-19T12:06:43.172Z,26.74
2018-09-19T12:07:43.191Z,26.80
2018-09-19T12:08:43.219Z,26.81
2018-09-19T12:09:43.254Z,26.69
2018-09-19T12:10:43.308Z,26.72
2018-09-19T12:11:43.315Z,26.77
2018-09-19T12:12:43.340Z,26.86
2018-09-19T12:13:43.360Z,26.95
2018-09-19T12:14:43.395Z,26.83
2018-09-19T12:15:43.416Z,26.77
2018-09-19T12:16:43.442Z,26.76
2018-09-19T12:17:43.481Z,26.76
2018-09-19T12:18:43.502Z,26.80
2018-09-19T12:19:43.525Z,26.73
2018-09-19T12:20:43.561Z,26.81
2018-09-19T12:21:43.584Z,26.77
2018-09-19T12:22:43.612Z,26.74
2018-09-19T12:23:43.639Z,26.69
2018-09-19T12:24:43.668Z,26.89
2018-09-19T12:25:43.700Z,26.89
2018-09-19T12:26:43.796Z,26.76
2018-09-19T12:27:43.757Z,26.80
2018-09-19T12:28:43.924Z,26.81
2018-09-19T12:29:43.828Z,26.84
2018-09-19T12:30:43.853Z,26.95
2018-09-19T12:31:43.878Z,26.83
2018-09-19T12:32:43.901Z,26.96
2018-09-19T12:33:43.929Z,26.84
2018-09-19T12:34:43.949Z,26.81
2018-09-19T12:35:43.980Z,26.81
2018-09-19T12:36:44.006Z,26.74
2018-09-19T12:37:44.033Z,26.72
2018-09-19T12:38:44.066Z,26.77
2018-09-19T12:39:44.209Z,26.81
2018-09-19T12:40:44.114Z,26.81
2018-09-19T12:41:44.142Z,26.81
2018-09-19T12:42:44.176Z,26.76
2018-09-19T12:43:44.196Z,26.76
2018-09-19T12:44:44.226Z,26.77
2018-09-19T12:45:44.256Z,26.76
2018-09-19T12:46:44.285Z,26.83
2018-09-19T12:47:44.311Z,27.01
2018-09-19T12:48:44.347Z,27.04
2018-09-19T12:49:44.377Z,26.99
2018-09-19T12:50:44.958Z,27.06
2018-09-19T12:51:44.431Z,26.96
2018-09-19T12:52:44.467Z,26.99
2018-09-19T12:53:44.480Z,26.99
2018-09-19T12:54:44.509Z,26.99
2018-09-19T12:55:44.533Z,26.92